Bartonsville, PA

5:55 AM EST on December 25, 2014 (GMT -0500)
Wilkes-Barre-Scranton International | Change Station
CLOSE
Current Station
Airport
Location: Avoca,
Elevation: 961 ft
Nearby Weather Stations

Elev 961 ft 41.33 °N, 75.72 °W | Updated 39 minutes ago

Rain
Rain
44 °F
Feels Like 37 °F
N
15
Wind Variable Wind from WSW
Gusts 31 mph

Today
High -- | Low -- °F
--% Chance of Precip.
Yesterday
High -- | Low -- °F
Precip. -- in
7:24 AM 4:38 PM
Waxing Crescent, 15% visible
Pressure 29.61 in
Visibility 8.0 miles
Clouds Few 2100 ft
Few 2600 ft
Overcast 3200 ft
Windchill 37 °F
Dew Point 36 °F
Humidity 73%
Rainfall 0.12 in
Snow Depth Not available.
UV 0 out of 12
Pollen .10 out of 12
Air Quality Not available.
Flu Activity Not available.
SPECI KAVP 251016Z 25013G27KT 8SM -RA FEW021 FEW026 OVC032 07/02 A2961 RMK AO2 PK WND 25027/1011 P0001 T00670022 $

More Conditions Fewer Conditions

Pressure 29.61 in
Visibility 8.0 miles
Clouds Few 2100 ft
Few 2600 ft
Overcast 3200 ft
Windchill 37 °F
Dew Point 36 °F
Humidity 73%
Rainfall 0.12 in
Snow Depth Not available.
UV 0 out of 12
Pollen .10 out of 12
Air Quality Not available.
Flu Activity Not available.
SPECI KAVP 251016Z 25013G27KT 8SM -RA FEW021 FEW026 OVC032 07/02 A2961 RMK AO2 PK WND 25027/1011 P0001 T00670022 $

More Conditions Fewer Conditions

Nowcast | as of 5:12 am EST on December 25, 2014

The rain that is over the region should be ending by 7 am. Temperatures will continue to fall through the 40s. Some gusty west winds will reach close to 35 mph, especially over the higher terrain. Additional rainfall amounts after 5 am should average less than one twentieth of an inch.

×

10-Day Weather Forecast

Almanac

Astronomy

Dec. 25, 2014 Rise Set
Actual Time
Civil Twilight
Nautical Twilight
Astronomical Twilight
Moon
Length of Visible Light
Length of Day
Tomorrow will be .
, % of the Moon is Illuminated

Today's Extremes

State Highs State Lows

Community

WunderPhotos

Upload Photos

1,780,254 photos uploaded!

WunderBlogs® & News

Nearby

Air Quality

  Air Quality AQ Index Pollutant
Not available.

Snow Depth

Station Depth Elevation

Earthquake Activity

City Distance Mag. Time & Date
Minimum magnitude displayed is 2.5.

Coastal Water Temperatures

Place Temperature

Nearby Weather Stations